This is the latest recevied weather packets stored in our database for station/object EA8BYO-10. If no packets are shown the sender has not sent any weather packets the latest 10 day(s).
| Time | Temp. | Humidity | Pressure | Rain* | Wind** | Luminosity | Snow |
|---|---|---|---|---|---|---|---|
| 1787767220 | 27.22° C | 52% | 1006.3 hPa | - | - | - | - |
| 1787766319 | 28.33° C | 51% | 1006.4 hPa | - | - | - | - |
| 1787765419 | 28.33° C | 51% | 1006.4 hPa | - | - | - | - |
| 1787764519 | 28.33° C | 51% | 1006.3 hPa | - | - | - | - |
| 1787763619 | 28.89° C | 50% | 1006.4 hPa | - | - | - | - |
| 1787762719 | 30° C | 47% | 1006.3 hPa | - | - | - | - |
| 1787761819 | 30.56° C | 45% | 1006.4 hPa | - | - | - | - |
| 1787760919 | 31.11° C | 44% | 1006.3 hPa | - | - | - | - |
| 1787760019 | 31.67° C | 42% | 1006.3 hPa | - | - | - | - |
| 1787759119 | 32.22° C | 39% | 1006.4 hPa | - | - | - | - |
| 1787758219 | 33.33° C | 39% | 1006.4 hPa | - | - | - | - |
| 1787757318 | 32.78° C | 40% | 1006.4 hPa | - | - | - | - |
| 1787756418 | 33.89° C | 39% | 1006.8 hPa | - | - | - | - |
| 1787755518 | 32.78° C | 41% | 1007 hPa | - | - | - | - |
| 1787754618 | 31.67° C | 43% | 1006.9 hPa | - | - | - | - |
| 1787753718 | 31.67° C | 43% | 1007.4 hPa | - | - | - | - |
| 1787752818 | 31.11° C | 43% | 1007.7 hPa | - | - | - | - |
| 1787751918 | 30.56° C | 43% | 1007.6 hPa | - | - | - | - |
| 1787751018 | 30.56° C | 45% | 1007.6 hPa | - | - | - | - |
| 1787750118 | 30.56° C | 44% | 1007.5 hPa | - | - | - | - |
| 1787749217 | 30.56° C | 44% | 1007.8 hPa | - | - | - | - |
| 1787748317 | 30° C | 43% | 1007.8 hPa | - | - | - | - |
| 1787747417 | 30.56° C | 42% | 1007.8 hPa | - | - | - | - |
| 1787746517 | 30.56° C | 43% | 1008 hPa | - | - | - | - |
| 1787745617 | 30° C | 44% | 1008.3 hPa | - | - | - | - |
* Rain since midnight (hover to see other rain measurements)
** Current wind speed in m/s (hover to see current wind gust speed)